sensor_id;sensor_type;location;lat;lon;timestamp;temperature;humidity
53314;DHT22;39202;51.468;7.146;2022-10-24T00:04:54;23.90;46.40
53314;DHT22;39202;51.468;7.146;2022-10-24T00:09:56;23.90;46.40
53314;DHT22;39202;51.468;7.146;2022-10-24T00:14:57;23.90;46.40
53314;DHT22;39202;51.468;7.146;2022-10-24T00:20:00;23.90;46.40
53314;DHT22;39202;51.468;7.146;2022-10-24T00:25:03;23.90;46.40
53314;DHT22;39202;51.468;7.146;2022-10-24T00:30:06;23.80;46.30
53314;DHT22;39202;51.468;7.146;2022-10-24T00:35:10;23.90;46.40
53314;DHT22;39202;51.468;7.146;2022-10-24T00:40:13;23.90;46.40
53314;DHT22;39202;51.468;7.146;2022-10-24T00:45:38;23.90;46.40
53314;DHT22;39202;51.468;7.146;2022-10-24T00:50:42;23.80;46.40
53314;DHT22;39202;51.468;7.146;2022-10-24T00:55:47;23.80;46.40
53314;DHT22;39202;51.468;7.146;2022-10-24T01:00:50;23.80;46.40
53314;DHT22;39202;51.468;7.146;2022-10-24T01:06:06;23.80;46.40
53314;DHT22;39202;51.468;7.146;2022-10-24T01:11:20;23.80;46.40
53314;DHT22;39202;51.468;7.146;2022-10-24T01:16:29;23.80;46.40
53314;DHT22;39202;51.468;7.146;2022-10-24T01:21:38;23.80;46.40
53314;DHT22;39202;51.468;7.146;2022-10-24T01:27:13;23.80;46.40
53314;DHT22;39202;51.468;7.146;2022-10-24T01:32:28;23.80;46.30
53314;DHT22;39202;51.468;7.146;2022-10-24T01:37:36;23.80;46.40
53314;DHT22;39202;51.468;7.146;2022-10-24T01:42:39;23.80;46.30
53314;DHT22;39202;51.468;7.146;2022-10-24T01:47:47;23.80;46.40
53314;DHT22;39202;51.468;7.146;2022-10-24T01:52:52;23.80;46.30
53314;DHT22;39202;51.468;7.146;2022-10-24T01:57:54;23.80;46.40
53314;DHT22;39202;51.468;7.146;2022-10-24T02:03:00;23.80;46.30
53314;DHT22;39202;51.468;7.146;2022-10-24T02:08:04;23.80;46.40
53314;DHT22;39202;51.468;7.146;2022-10-24T02:13:10;23.80;46.30
53314;DHT22;39202;51.468;7.146;2022-10-24T02:18:15;23.80;46.30
53314;DHT22;39202;51.468;7.146;2022-10-24T02:23:22;23.80;46.40
53314;DHT22;39202;51.468;7.146;2022-10-24T02:28:28;23.80;46.40
53314;DHT22;39202;51.468;7.146;2022-10-24T02:33:34;23.80;46.30
53314;DHT22;39202;51.468;7.146;2022-10-24T02:38:38;23.80;46.30
53314;DHT22;39202;51.468;7.146;2022-10-24T02:43:42;23.80;46.30
53314;DHT22;39202;51.468;7.146;2022-10-24T02:48:49;23.80;46.30
53314;DHT22;39202;51.468;7.146;2022-10-24T02:53:52;23.80;46.30
53314;DHT22;39202;51.468;7.146;2022-10-24T02:58:54;23.80;46.30
53314;DHT22;39202;51.468;7.146;2022-10-24T03:03:57;23.80;46.30
53314;DHT22;39202;51.468;7.146;2022-10-24T03:08:58;23.80;47.00
53314;DHT22;39202;51.468;7.146;2022-10-24T03:14:00;23.80;46.40
53314;DHT22;39202;51.468;7.146;2022-10-24T03:19:03;23.80;46.30
53314;DHT22;39202;51.468;7.146;2022-10-24T03:24:05;23.80;46.30
53314;DHT22;39202;51.468;7.146;2022-10-24T03:29:07;23.80;46.30
53314;DHT22;39202;51.468;7.146;2022-10-24T03:34:10;23.80;46.30
53314;DHT22;39202;51.468;7.146;2022-10-24T03:39:12;23.80;46.30
53314;DHT22;39202;51.468;7.146;2022-10-24T03:44:13;23.80;46.30
53314;DHT22;39202;51.468;7.146;2022-10-24T03:49:17;23.80;46.30
53314;DHT22;39202;51.468;7.146;2022-10-24T03:54:18;23.80;46.30
53314;DHT22;39202;51.468;7.146;2022-10-24T03:59:20;23.80;46.30
53314;DHT22;39202;51.468;7.146;2022-10-24T04:04:23;23.80;46.30
53314;DHT22;39202;51.468;7.146;2022-10-24T04:09:25;23.80;46.30
53314;DHT22;39202;51.468;7.146;2022-10-24T04:14:27;23.80;46.30
53314;DHT22;39202;51.468;7.146;2022-10-24T04:19:30;23.70;46.20
53314;DHT22;39202;51.468;7.146;2022-10-24T04:24:31;23.80;46.30
53314;DHT22;39202;51.468;7.146;2022-10-24T04:29:33;23.80;46.30
53314;DHT22;39202;51.468;7.146;2022-10-24T04:34:36;23.70;46.20
53314;DHT22;39202;51.468;7.146;2022-10-24T04:39:38;23.70;46.20
53314;DHT22;39202;51.468;7.146;2022-10-24T04:44:40;23.70;46.30
53314;DHT22;39202;51.468;7.146;2022-10-24T04:49:43;23.70;46.20
53314;DHT22;39202;51.468;7.146;2022-10-24T04:54:45;23.70;46.90
53314;DHT22;39202;51.468;7.146;2022-10-24T04:59:47;23.80;46.30
53314;DHT22;39202;51.468;7.146;2022-10-24T05:04:50;23.70;46.20
53314;DHT22;39202;51.468;7.146;2022-10-24T05:09:51;23.80;46.90
53314;DHT22;39202;51.468;7.146;2022-10-24T05:14:53;23.70;46.90
53314;DHT22;39202;51.468;7.146;2022-10-24T05:19:56;23.80;46.30
53314;DHT22;39202;51.468;7.146;2022-10-24T05:24:58;23.70;46.30
53314;DHT22;39202;51.468;7.146;2022-10-24T05:30:00;23.70;46.30
53314;DHT22;39202;51.468;7.146;2022-10-24T05:35:03;23.80;46.20
53314;DHT22;39202;51.468;7.146;2022-10-24T05:40:07;23.80;46.20
53314;DHT22;39202;51.468;7.146;2022-10-24T05:45:10;23.80;46.10
53314;DHT22;39202;51.468;7.146;2022-10-24T05:50:14;23.80;46.10
53314;DHT22;39202;51.468;7.146;2022-10-24T05:55:15;23.80;46.20
53314;DHT22;39202;51.468;7.146;2022-10-24T06:00:18;23.70;46.10
53314;DHT22;39202;51.468;7.146;2022-10-24T06:05:21;23.70;46.10
53314;DHT22;39202;51.468;7.146;2022-10-24T06:10:22;23.80;46.20
53314;DHT22;39202;51.468;7.146;2022-10-24T06:15:24;23.70;46.10
53314;DHT22;39202;51.468;7.146;2022-10-24T06:20:27;23.70;46.20
53314;DHT22;39202;51.468;7.146;2022-10-24T06:25:29;23.70;46.30
53314;DHT22;39202;51.468;7.146;2022-10-24T06:30:31;23.70;46.40
53314;DHT22;39202;51.468;7.146;2022-10-24T06:35:34;23.80;46.50
53314;DHT22;39202;51.468;7.146;2022-10-24T06:40:36;23.80;46.50
53314;DHT22;39202;51.468;7.146;2022-10-24T06:45:39;23.90;46.50
53314;DHT22;39202;51.468;7.146;2022-10-24T06:50:42;24.00;46.50
53314;DHT22;39202;51.468;7.146;2022-10-24T06:55:44;24.10;46.50
53314;DHT22;39202;51.468;7.146;2022-10-24T07:00:46;24.10;46.50
53314;DHT22;39202;51.468;7.146;2022-10-24T07:05:49;24.20;46.60
53314;DHT22;39202;51.468;7.146;2022-10-24T07:10:50;24.30;46.60
53314;DHT22;39202;51.468;7.146;2022-10-24T07:15:52;24.30;46.70
53314;DHT22;39202;51.468;7.146;2022-10-24T07:21:00;24.40;46.80
53314;DHT22;39202;51.468;7.146;2022-10-24T07:26:02;24.50;46.90
53314;DHT22;39202;51.468;7.146;2022-10-24T07:31:05;24.50;46.90
53314;DHT22;39202;51.468;7.146;2022-10-24T07:36:09;24.60;46.90
53314;DHT22;39202;51.468;7.146;2022-10-24T07:41:10;24.70;46.90
53314;DHT22;39202;51.468;7.146;2022-10-24T07:46:14;24.80;46.90
53314;DHT22;39202;51.468;7.146;2022-10-24T07:51:18;24.80;46.80
53314;DHT22;39202;51.468;7.146;2022-10-24T07:56:20;24.90;46.80
53314;DHT22;39202;51.468;7.146;2022-10-24T08:01:24;25.00;46.70
53314;DHT22;39202;51.468;7.146;2022-10-24T08:06:29;25.00;46.70
53314;DHT22;39202;51.468;7.146;2022-10-24T08:11:31;25.10;46.70
53314;DHT22;39202;51.468;7.146;2022-10-24T08:16:33;25.10;46.60
53314;DHT22;39202;51.468;7.146;2022-10-24T08:21:36;25.10;46.50
53314;DHT22;39202;51.468;7.146;2022-10-24T08:26:38;25.20;46.60
53314;DHT22;39202;51.468;7.146;2022-10-24T08:31:40;25.20;46.60
53314;DHT22;39202;51.468;7.146;2022-10-24T08:36:45;25.20;46.50
53314;DHT22;39202;51.468;7.146;2022-10-24T08:41:49;25.30;46.50
53314;DHT22;39202;51.468;7.146;2022-10-24T08:46:54;25.30;46.60
53314;DHT22;39202;51.468;7.146;2022-10-24T08:52:00;25.30;46.60
53314;DHT22;39202;51.468;7.146;2022-10-24T08:57:04;25.30;46.60
53314;DHT22;39202;51.468;7.146;2022-10-24T09:02:14;25.30;47.20
53314;DHT22;39202;51.468;7.146;2022-10-24T09:07:20;25.30;79.40
53314;DHT22;39202;51.468;7.146;2022-10-24T09:12:22;25.40;80.70
53314;DHT22;39202;51.468;7.146;2022-10-24T09:17:29;25.40;82.10
53314;DHT22;39202;51.468;7.146;2022-10-24T09:22:34;25.40;83.60
53314;DHT22;39202;51.468;7.146;2022-10-24T09:27:37;25.40;85.70
53314;DHT22;39202;51.468;7.146;2022-10-24T09:32:40;25.40;85.90
53314;DHT22;39202;51.468;7.146;2022-10-24T09:37:45;25.40;85.90
53314;DHT22;39202;51.468;7.146;2022-10-24T09:42:58;25.40;85.30
53314;DHT22;39202;51.468;7.146;2022-10-24T09:48:04;25.40;46.70
53314;DHT22;39202;51.468;7.146;2022-10-24T09:53:22;25.40;46.60
53314;DHT22;39202;51.468;7.146;2022-10-24T09:58:27;25.40;46.70
53314;DHT22;39202;51.468;7.146;2022-10-24T10:03:34;25.50;46.70
53314;DHT22;39202;51.468;7.146;2022-10-24T10:08:37;25.50;46.60
53314;DHT22;39202;51.468;7.146;2022-10-24T10:13:43;25.50;46.60
53314;DHT22;39202;51.468;7.146;2022-10-24T10:18:49;25.50;46.60
53314;DHT22;39202;51.468;7.146;2022-10-24T10:23:54;25.50;46.60
53314;DHT22;39202;51.468;7.146;2022-10-24T10:29:01;25.50;46.70
53314;DHT22;39202;51.468;7.146;2022-10-24T10:34:16;25.50;46.70
53314;DHT22;39202;51.468;7.146;2022-10-24T10:39:34;25.50;46.70
53314;DHT22;39202;51.468;7.146;2022-10-24T10:44:49;25.60;46.70
53314;DHT22;39202;51.468;7.146;2022-10-24T10:49:56;25.60;46.70
53314;DHT22;39202;51.468;7.146;2022-10-24T10:55:11;25.60;46.70
53314;DHT22;39202;51.468;7.146;2022-10-24T11:00:18;25.60;46.60
53314;DHT22;39202;51.468;7.146;2022-10-24T11:05:36;25.60;46.50
53314;DHT22;39202;51.468;7.146;2022-10-24T11:10:46;25.60;46.40
53314;DHT22;39202;51.468;7.146;2022-10-24T11:15:53;25.60;46.40
53314;DHT22;39202;51.468;7.146;2022-10-24T12:20:44;25.50;46.60
53314;DHT22;39202;51.468;7.146;2022-10-24T12:26:01;25.50;46.80
53314;DHT22;39202;51.468;7.146;2022-10-24T12:31:09;25.50;46.90
53314;DHT22;39202;51.468;7.146;2022-10-24T12:36:13;25.50;46.80
53314;DHT22;39202;51.468;7.146;2022-10-24T12:41:39;25.70;46.90
53314;DHT22;39202;51.468;7.146;2022-10-24T12:46:54;25.60;47.50
53314;DHT22;39202;51.468;7.146;2022-10-24T12:51:58;25.70;46.90
53314;DHT22;39202;51.468;7.146;2022-10-24T12:57:24;25.70;46.80
53314;DHT22;39202;51.468;7.146;2022-10-24T13:02:58;25.70;46.90
53314;DHT22;39202;51.468;7.146;2022-10-24T13:08:16;25.70;46.80
53314;DHT22;39202;51.468;7.146;2022-10-24T13:13:42;25.80;46.80
53314;DHT22;39202;51.468;7.146;2022-10-24T13:18:56;25.80;46.80
53314;DHT22;39202;51.468;7.146;2022-10-24T13:24:28;25.80;46.80
53314;DHT22;39202;51.468;7.146;2022-10-24T13:35:19;25.80;46.80
53314;DHT22;39202;51.468;7.146;2022-10-24T13:40:29;25.90;46.90
53314;DHT22;39202;51.468;7.146;2022-10-24T13:45:39;25.90;46.90
53314;DHT22;39202;51.468;7.146;2022-10-24T13:50:47;25.90;46.90
53314;DHT22;39202;51.468;7.146;2022-10-24T13:55:52;25.90;46.90
53314;DHT22;39202;51.468;7.146;2022-10-24T14:00:57;25.90;46.80
53314;DHT22;39202;51.468;7.146;2022-10-24T14:06:01;25.90;46.80
53314;DHT22;39202;51.468;7.146;2022-10-24T14:11:07;26.00;46.90
53314;DHT22;39202;51.468;7.146;2022-10-24T14:16:13;26.00;46.90
53314;DHT22;39202;51.468;7.146;2022-10-24T14:21:17;26.00;46.90
53314;DHT22;39202;51.468;7.146;2022-10-24T14:26:21;26.00;46.90
53314;DHT22;39202;51.468;7.146;2022-10-24T14:31:24;26.00;46.80
53314;DHT22;39202;51.468;7.146;2022-10-24T14:36:29;26.00;46.80
53314;DHT22;39202;51.468;7.146;2022-10-24T14:41:33;26.00;46.70
53314;DHT22;39202;51.468;7.146;2022-10-24T14:46:39;26.40;46.90
53314;DHT22;39202;51.468;7.146;2022-10-24T14:51:41;26.00;46.60
53314;DHT22;39202;51.468;7.146;2022-10-24T14:56:44;26.00;46.60
53314;DHT22;39202;51.468;7.146;2022-10-24T15:01:53;25.90;46.60
53314;DHT22;39202;51.468;7.146;2022-10-24T15:06:56;26.00;46.60
53314;DHT22;39202;51.468;7.146;2022-10-24T15:12:00;25.90;46.50
53314;DHT22;39202;51.468;7.146;2022-10-24T15:17:13;25.90;46.50
53314;DHT22;39202;51.468;7.146;2022-10-24T15:22:24;25.90;46.50
53314;DHT22;39202;51.468;7.146;2022-10-24T15:27:32;25.90;46.50
53314;DHT22;39202;51.468;7.146;2022-10-24T15:32:37;25.90;46.50
53314;DHT22;39202;51.468;7.146;2022-10-24T15:37:39;25.90;46.50
53314;DHT22;39202;51.468;7.146;2022-10-24T15:42:43;25.80;46.40
53314;DHT22;39202;51.468;7.146;2022-10-24T15:47:44;25.80;46.40
53314;DHT22;39202;51.468;7.146;2022-10-24T15:52:48;25.70;46.30
53314;DHT22;39202;51.468;7.146;2022-10-24T15:57:52;25.80;46.40
53314;DHT22;39202;51.468;7.146;2022-10-24T16:02:57;25.70;46.40
53314;DHT22;39202;51.468;7.146;2022-10-24T16:08:04;25.70;46.40
53314;DHT22;39202;51.468;7.146;2022-10-24T16:13:08;25.70;46.30
53314;DHT22;39202;51.468;7.146;2022-10-24T16:18:11;25.70;46.30
53314;DHT22;39202;51.468;7.146;2022-10-24T16:23:14;25.70;46.30
53314;DHT22;39202;51.468;7.146;2022-10-24T16:28:18;25.70;46.30
53314;DHT22;39202;51.468;7.146;2022-10-24T16:33:22;25.70;46.30
53314;DHT22;39202;51.468;7.146;2022-10-24T16:38:24;25.70;46.30
53314;DHT22;39202;51.468;7.146;2022-10-24T16:43:27;25.70;46.20
53314;DHT22;39202;51.468;7.146;2022-10-24T16:48:29;25.70;46.30
53314;DHT22;39202;51.468;7.146;2022-10-24T16:53:30;25.60;46.20
53314;DHT22;39202;51.468;7.146;2022-10-24T16:58:36;25.60;46.30
53314;DHT22;39202;51.468;7.146;2022-10-24T17:03:38;25.60;46.30
53314;DHT22;39202;51.468;7.146;2022-10-24T17:08:40;25.50;46.20
53314;DHT22;39202;51.468;7.146;2022-10-24T17:13:43;25.60;46.30
53314;DHT22;39202;51.468;7.146;2022-10-24T17:18:45;25.60;46.20
53314;DHT22;39202;51.468;7.146;2022-10-24T17:23:47;25.50;46.20
53314;DHT22;39202;51.468;7.146;2022-10-24T17:28:50;25.50;46.20
53314;DHT22;39202;51.468;7.146;2022-10-24T17:33:52;25.50;46.20
53314;DHT22;39202;51.468;7.146;2022-10-24T17:38:56;25.50;46.30
53314;DHT22;39202;51.468;7.146;2022-10-24T17:44:01;25.40;46.20
53314;DHT22;39202;51.468;7.146;2022-10-24T17:49:03;25.40;46.30
53314;DHT22;39202;51.468;7.146;2022-10-24T17:54:05;25.40;46.30
53314;DHT22;39202;51.468;7.146;2022-10-24T17:59:09;25.40;46.30
53314;DHT22;39202;51.468;7.146;2022-10-24T18:04:11;25.40;46.30
53314;DHT22;39202;51.468;7.146;2022-10-24T18:09:13;25.30;46.20
53314;DHT22;39202;51.468;7.146;2022-10-24T18:14:16;25.30;46.20
53314;DHT22;39202;51.468;7.146;2022-10-24T18:19:18;25.30;46.30
53314;DHT22;39202;51.468;7.146;2022-10-24T18:24:19;25.30;46.20
53314;DHT22;39202;51.468;7.146;2022-10-24T18:29:22;25.30;46.20
53314;DHT22;39202;51.468;7.146;2022-10-24T18:34:24;25.30;46.30
53314;DHT22;39202;51.468;7.146;2022-10-24T18:39:26;25.30;46.20
53314;DHT22;39202;51.468;7.146;2022-10-24T18:44:30;25.30;46.30
53314;DHT22;39202;51.468;7.146;2022-10-24T18:49:34;25.30;46.30
53314;DHT22;39202;51.468;7.146;2022-10-24T18:54:37;25.20;46.20
53314;DHT22;39202;51.468;7.146;2022-10-24T18:59:41;25.20;46.30
53314;DHT22;39202;51.468;7.146;2022-10-24T19:04:48;25.20;46.20
53314;DHT22;39202;51.468;7.146;2022-10-24T19:09:52;25.20;46.20
53314;DHT22;39202;51.468;7.146;2022-10-24T19:14:55;25.20;46.20
53314;DHT22;39202;51.468;7.146;2022-10-24T19:19:57;25.20;46.20
53314;DHT22;39202;51.468;7.146;2022-10-24T19:24:59;25.10;46.20
53314;DHT22;39202;51.468;7.146;2022-10-24T19:30:03;25.20;46.30
53314;DHT22;39202;51.468;7.146;2022-10-24T19:35:05;25.20;46.30
53314;DHT22;39202;51.468;7.146;2022-10-24T19:40:08;25.10;46.20
53314;DHT22;39202;51.468;7.146;2022-10-24T19:45:11;25.10;46.20
53314;DHT22;39202;51.468;7.146;2022-10-24T19:50:13;25.10;46.20
53314;DHT22;39202;51.468;7.146;2022-10-24T19:55:15;25.10;46.20
53314;DHT22;39202;51.468;7.146;2022-10-24T20:00:18;25.10;46.20
53314;DHT22;39202;51.468;7.146;2022-10-24T20:05:20;25.10;46.20
53314;DHT22;39202;51.468;7.146;2022-10-24T20:10:22;25.10;46.20
53314;DHT22;39202;51.468;7.146;2022-10-24T20:15:25;25.10;46.20
53314;DHT22;39202;51.468;7.146;2022-10-24T20:20:27;25.10;46.30
53314;DHT22;39202;51.468;7.146;2022-10-24T20:25:29;25.10;46.20
53314;DHT22;39202;51.468;7.146;2022-10-24T20:30:37;25.10;46.30
53314;DHT22;39202;51.468;7.146;2022-10-24T20:35:39;25.00;46.20
53314;DHT22;39202;51.468;7.146;2022-10-24T20:40:41;25.00;46.20
53314;DHT22;39202;51.468;7.146;2022-10-24T20:45:44;25.00;46.20
53314;DHT22;39202;51.468;7.146;2022-10-24T20:50:45;25.00;46.20
53314;DHT22;39202;51.468;7.146;2022-10-24T20:55:47;25.00;46.20
53314;DHT22;39202;51.468;7.146;2022-10-24T21:00:50;25.00;46.20
53314;DHT22;39202;51.468;7.146;2022-10-24T21:05:52;25.00;46.20
53314;DHT22;39202;51.468;7.146;2022-10-24T21:10:53;26.30;47.10
53314;DHT22;39202;51.468;7.146;2022-10-24T21:15:56;25.00;46.20
53314;DHT22;39202;51.468;7.146;2022-10-24T21:21:03;25.00;46.30
53314;DHT22;39202;51.468;7.146;2022-10-24T21:26:07;25.00;46.30
53314;DHT22;39202;51.468;7.146;2022-10-24T21:31:12;25.00;46.30
53314;DHT22;39202;51.468;7.146;2022-10-24T21:36:16;25.00;46.50
53314;DHT22;39202;51.468;7.146;2022-10-24T21:41:20;24.90;46.30
53314;DHT22;39202;51.468;7.146;2022-10-24T21:46:25;24.90;46.90
53314;DHT22;39202;51.468;7.146;2022-10-24T21:51:30;24.90;46.20
53314;DHT22;39202;51.468;7.146;2022-10-24T21:56:34;24.90;46.30
53314;DHT22;39202;51.468;7.146;2022-10-24T22:01:38;24.80;46.20
53314;DHT22;39202;51.468;7.146;2022-10-24T22:06:41;24.90;46.30
53314;DHT22;39202;51.468;7.146;2022-10-24T22:11:43;24.80;46.20
53314;DHT22;39202;51.468;7.146;2022-10-24T22:16:46;24.90;46.30
53314;DHT22;39202;51.468;7.146;2022-10-24T22:21:49;24.90;46.50
53314;DHT22;39202;51.468;7.146;2022-10-24T22:26:51;24.80;46.20
53314;DHT22;39202;51.468;7.146;2022-10-24T22:31:55;24.80;46.20
53314;DHT22;39202;51.468;7.146;2022-10-24T22:37:06;24.80;46.20
53314;DHT22;39202;51.468;7.146;2022-10-24T22:42:13;24.80;46.20
53314;DHT22;39202;51.468;7.146;2022-10-24T22:47:32;24.80;46.20
53314;DHT22;39202;51.468;7.146;2022-10-24T22:52:36;24.80;46.20
53314;DHT22;39202;51.468;7.146;2022-10-24T22:57:38;24.80;46.20
53314;DHT22;39202;51.468;7.146;2022-10-24T23:02:43;24.80;46.30
53314;DHT22;39202;51.468;7.146;2022-10-24T23:07:50;24.80;46.30
53314;DHT22;39202;51.468;7.146;2022-10-24T23:12:54;24.80;46.30
53314;DHT22;39202;51.468;7.146;2022-10-24T23:17:58;24.80;46.30
53314;DHT22;39202;51.468;7.146;2022-10-24T23:23:01;24.80;46.30
53314;DHT22;39202;51.468;7.146;2022-10-24T23:28:10;24.80;46.20
53314;DHT22;39202;51.468;7.146;2022-10-24T23:33:22;24.80;46.30
53314;DHT22;39202;51.468;7.146;2022-10-24T23:38:27;24.80;46.30
53314;DHT22;39202;51.468;7.146;2022-10-24T23:43:29;24.70;46.20
53314;DHT22;39202;51.468;7.146;2022-10-24T23:48:43;24.80;46.10
53314;DHT22;39202;51.468;7.146;2022-10-24T23:53:48;24.80;46.10
53314;DHT22;39202;51.468;7.146;2022-10-24T23:58:52;24.80;46.10
